Millville Municipal Airport
KMIV : now visible

Airfield :











YOU CAN JOIN US ON...

 
LOGIN :

Register | Disclaimer

   EN    FR    IT 

 









Legend :    VFR   Marginal VFR   IFR   Intensive IFR   Very Intensive IFR
Visi :
Ceiling :
>= 8 km
>= 3000ft
5 to 8 km
1000 to 3000 ft
1500m to 5 km
500 to 1000 ft
800 to 1500m
200 to 500 ft
< 800m
< 200 ft
Symbols :   Thunderstorms  Fog  Heavy snow  Heavy precipitations  Wind > 20 kt






- Airport Elevation : 85 ft


KMIV - Millville Municipal

CURRENT METAR :
  • 241054Z AUTO 00000KT 10SM BKN009 16/14 A2997 RMK AO2 SLP147 T01560144

EXPIRED METARs :
  • 240954Z AUTO 00000KT 10SM OVC011 16/14 A2998 RMK AO2 SLP151 T01610144
  • 240916Z AUTO 19003KT 10SM OVC010 16/14 A2999 RMK AO2 CIG 008V012 T01610144
  • 240854Z AUTO VRB03KT 10SM OVC009 17/14 A2999 RMK AO2 CIG 007V012 SLP155 T01670144 58010
  • 240754Z AUTO 00000KT 10SM OVC008 17/15 A3001 RMK AO2 SLP161 T01670150

TAF KMIV
Valid from the 24 at 08:00 until the 25 at 06:00 UTC


240803Z 2408/2506 VRB02KT P6SM OVC009
TEMPO 2408/2410 OVC008
FM241000 20004KT P6SM BKN015
FM241400 24006KT P6SM BKN035
FM241800 32008KT P6SM BKN040
FM250000 27005KT P6SM BKN080
KZDC FIR / North America



MET'MAP, your aeronautical weather chart ! - Copyright ORBIFLY December 2007 - Disclaimer

ORBIFLY MET'MAP TEAM :

Programming & Development : Alexandra Zaïnal
Concept & original design : Baudouin d'Aumeries
Assistance for programming : Marc-Olivier Méhu
Technical & hardware support : Manuel Goepfert

Contact : metmap@orbifly.com




SOURCES & CREDITS :

   NOAA       Earth
Advisory